RIPO2: Cimarron River Near Ripley, OK

                                SHEF ID:       RIPO2     Cimarron River near Ripley, OK
STATION TYPE:
Regulating: Stage = 20.00, Flow = 33370

PRECIP ELEVATION STAGE RIV-FLOW AIR-TEMP WIND-DIRWIND-SPEED REL-HUMID VOLTAGE BAT-LOAD
in ft ft cfs F deg mph % volt volt
Ccp-Rev Ccp-Rev Ccp-Rev Ccp-Rev Ccp-Rev Ccp-Rev Ccp-Rev Ccp-Rev Ccp-Rev Ccp-Rev
(America/Chicago)
02/06 00:00 0.00 ---- 7.94 625 121.28 ---- ---- ---- ---- 12.67
02/06 01:00 0.00 ---- 7.94 625 120.02 ---- ---- ---- ---- 12.63
02/06 02:00 0.00 ---- 7.94 625 118.22 ---- ---- ---- ---- 12.60
02/06 03:00 0.00 ---- 7.94 625 115.34 ---- ---- ---- ---- 12.58
02/06 04:00 0.00 ---- 7.94 625 112.82 ---- ---- ---- ---- 12.57
02/06 05:00 0.00 ---- 7.94 625 109.22 ---- ---- ---- ---- 12.53
02/06 06:00 0.00 ---- 7.94 625 107.78 ---- ---- ---- ---- 12.50
02/06 07:00 0.00 ---- 7.94 625 107.78 ---- ---- ---- ---- 12.49
02/06 08:00 0.00 ---- 7.94 625 108.50 ---- ---- ---- ---- 12.47
02/06 09:00 0.00 ---- 7.92 613 114.80 ---- ---- ---- ---- 12.50
02/06 10:00 0.00 ---- 7.83 565 128.84 ---- ---- ---- ---- 12.93
02/06 11:00 0.00 ---- 7.83 565 134.96 ---- ---- ---- ---- 13.65
02/06 12:00 0.00 ---- 7.82 559 140.90 ---- ---- ---- ---- 13.63
02/06 13:00 0.00 ---- 7.81 554 145.76 ---- ---- ---- ---- 13.55
02/06 14:00 0.00 ---- 7.79 544 149.00 ---- ---- ---- ---- 13.51
02/06 15:00 0.00 ---- 7.82 559 151.16 ---- ---- ---- ---- 13.48
02/06 16:00 0.00 ---- 7.80 549 152.42 ---- ---- ---- ---- 13.42
02/06 17:00 0.00 ---- 7.78 539 151.16 ---- ---- ---- ---- 13.39
02/06 18:00 0.00 ---- 7.86 581 144.50 ---- ---- ---- ---- 13.39
02/06 19:00 0.00 ---- 7.85 575 135.86 ---- ---- ---- ---- 13.26
02/06 20:00 0.00 ---- 7.85 575 130.10 ---- ---- ---- ---- 13.05
02/06 21:00 0.00 ---- 7.85 575 124.88 ---- ---- ---- ---- 12.90
02/06 22:00 0.00 ---- 7.85 575 121.10 ---- ---- ---- ---- 12.80
02/06 23:00 0.00 ---- 7.85 575 119.30 ---- ---- ---- ---- 12.71
Data processed at Sat 07Feb2026 05:02 GMT

NOTICE: If you are parsing this page

Please convert to using our Data API. Starting early 2026 we will be migrating to: https://water.usace.army.mil with modern pages rendered in JavaScript. When this migration completes you will no longer be able to scrape this page! CWMSDataAPI (CDA)

Timeseries IDs (TSIDs)

TSIDs used from left to right in the data table
RIPL.Precip-Inc.Total.1Hour.1Hour.Ccp-Rev
RIPL.Stage.Inst.1Hour.0.Ccp-Rev
RIPL.Flow.Inst.1Hour.0.Ccp-Rev
RIPL.Temp-Air.Inst.1Hour.0.Ccp-Rev
RIPL.Dir-Wind.Inst.1Hour.0.Ccp-Rev
RIPL.Speed-Wind.Inst.1Hour.0.Ccp-Rev
RIPL.%-Humidity.Inst.1Hour.0.Ccp-Rev
RIPL.Volt-Battery.Inst.1Hour.0.Ccp-Rev
RIPL.Volt-Battery Load.Inst.1Hour.0.Ccp-Rev

                            

All information presented herein is the property of the government of the United States of America and may be revised or deleted at any time without prior notice. Dissemination of this information without the expressed written consent of the Public Affairs Office, Tulsa District U.S. Army Corps of Engineers is strictly prohibited. These data are gathered electronically and, as presented, have NOT undergone any form of quality control. These data are NOT guaranteed to be valid or correct.